Flight Track Log - Related Links

Times and Time Zones

All times are in EDT time to prevent confusion due to time zone crossing. See the DAL2522 flight status page for this flight to view local times or setup timezone preferences in your user account.

Time Position Orientation Groundspeed Altitude Reporting Facility
EDT Latitude Longitude Course Direction KTS MPH feet Rate Location/Type
Wed 07:33:08 AM 36.2017 -94.2131 112° Southeast 244 281 4,900  Level Memphis Center
Wed 07:34:00 AM 36.1912 -93.8990 109° East  Level Estimated
Wed 07:34:09 AM 36.1769 -94.1222 109° East 270 311 7,300  Level Memphis Center
Wed 07:35:00 AM 36.1608 -93.7630 107° East  Level Estimated
Wed 07:35:10 AM 36.1556 -94.0347 107° East 287 330 9,500  Level Memphis Center
Wed 07:36:00 AM 36.1302 -93.6271 112° Southeast  Level Estimated
Wed 07:36:11 AM 36.1192 -93.9083 110° East 324 373 11,100  Level Memphis Center
Wed 07:37:00 AM 36.0745 -93.5040 119° Southeast  Level FlightAware Approximate
Wed 07:37:12 AM 36.0892 -93.7833 107° East 368 423 12,800  Level Memphis Center
Wed 07:38:00 AM 36.0440 -93.3682 112° Southeast  Level Estimated
Wed 07:38:13 AM 36.0547 -93.6564 109° East 385 443 14,700  Level Memphis Center
Wed 07:39:14 AM 36.0192 -93.5236 108° East 401 461 16,700 1,820 Climbing Memphis Center
Wed 07:40:15 AM 35.9831 -93.3842 108° East 419 482 18,400 1,561 Climbing Memphis Center
Wed 07:41:17 AM 35.9442 -93.2425 109° East 430 495 19,900 1,463 Climbing Memphis Center
Wed 07:42:18 AM 35.9044 -93.0947 108° East 446 513 21,400 1,475 Climbing Memphis Center
Wed 07:43:19 AM 35.8628 -92.9411 108° East 463 533 22,900 1,623 Climbing Memphis Center
Wed 07:44:20 AM 35.8206 -92.7833 108° East 477 549 24,700 1,561 Climbing Memphis Center
Wed 07:45:22 AM 35.7767 -92.6253 109° East 480 552 26,100 1,220 Climbing Memphis Center
Wed 07:46:23 AM 35.7325 -92.4647 109° East 485 558 27,200 1,279 Climbing Memphis Center
Wed 07:47:24 AM 35.6875 -92.3011 109° East 496 571 28,700 1,574 Climbing Memphis Center
Wed 07:48:25 AM 35.6397 -92.1278 109° East 497 572 30,400 1,561 Climbing Memphis Center
Wed 07:49:27 AM 35.5889 -91.9494 109° East 496 571 31,900 1,317 Climbing Memphis Center
Wed 07:50:28 AM 35.5461 -91.7906 108° East 495 570 33,100 1,131 Climbing Memphis Center
Wed 07:51:29 AM 35.4997 -91.6325 110° East 494 568 34,200 927 Climbing Memphis Center
Wed 07:52:31 AM 35.4547 -91.4733 109° East 494 568 35,000 390 Climbing Memphis Center
Wed 07:53:32 AM 35.4114 -91.3153 109° East 493 567 35,000  Level Memphis Center
Wed 07:54:33 AM 35.3658 -91.1581 110° East 493 567 35,000  Level Memphis Center
Wed 07:55:35 AM 35.3158 -90.9919 110° East 491 565 35,000  Level Memphis Center
Wed 07:56:36 AM 35.2711 -90.8375 109° East 486 559 35,000  Level Memphis Center
Wed 07:57:38 AM 35.2244 -90.6839 110° East 486 559 35,000  Level Memphis Center
Wed 07:58:39 AM 35.1792 -90.5308 110° East 485 558 35,000  Level Memphis Center
Wed 07:59:40 AM 35.1336 -90.3775 110° East 485 558 35,000  Level Memphis Center
Wed 08:00:42 AM 35.0883 -90.2247 110° East 483 556 35,000  Level Memphis Center
Wed 08:01:43 AM 35.0339 -90.0419 110° East 482 555 35,000  Level Memphis Center
Wed 08:02:45 AM 35.0011 -89.8822 104° East 484 557 35,000  Level Memphis Center
Wed 08:03:46 AM 34.9750 -89.7167 101° East 484 557 35,000  Level Memphis Center
Wed 08:04:48 AM 34.9489 -89.5522 101° East 484 557 35,000  Level Memphis Center
Wed 08:05:49 AM 34.9236 -89.3903 101° East 484 557 35,000  Level Memphis Center
Wed 08:06:51 AM 34.8983 -89.2294 101° East 484 557 35,000  Level Memphis Center
Wed 08:07:53 AM 34.8728 -89.0694 101° East 484 557 35,000  Level Memphis Center
Wed 08:08:54 AM 34.8475 -88.9086 101° East 484 557 35,000  Level Memphis Center
Wed 08:09:56 AM 34.8211 -88.7472 101° East 484 557 35,000  Level Memphis Center
Wed 08:10:57 AM 34.7956 -88.5872 101° East 484 557 35,000  Level Memphis Center
Wed 08:11:59 AM 34.7661 -88.4092 101° East 484 557 35,000  Level Memphis Center
Wed 08:13:01 AM 34.7389 -88.2489 102° East 484 557 35,000  Level Memphis Center
Wed 08:14:02 AM 34.7122 -88.0875 101° East 484 557 35,000  Level Memphis Center
Wed 08:15:04 AM 34.6850 -87.9272 102° East 484 557 35,000  Level Memphis Center
Wed 08:16:05 AM 34.6578 -87.7667 102° East 484 557 35,000 -244 Level Memphis Center
Wed 08:17:07 AM 34.6300 -87.6042 102° East 484 557 34,500 -823 Descending Memphis Center
Wed 08:18:09 AM 34.6022 -87.4403 102° East 484 557 33,300 -732 Descending Memphis Center
Wed 08:19:10 AM 34.5725 -87.2728 102° East 485 558 33,000 -146 Descending Memphis Center
Wed 08:20:12 AM 34.5392 -87.0836 102° East 485 558 33,000  Level Memphis Center
Wed 08:21:14 AM 34.5103 -86.9239 102° East 485 558 33,000  Level Memphis Center
Wed 08:22:16 AM 34.4811 -86.7619 102° East 487 560 33,000 -293 Level Memphis Center
Wed 08:23:17 AM 34.4528 -86.6033 102° East 487 560 32,400 -780 Descending Memphis Center
Wed 08:24:19 AM 34.4233 -86.4442 103° East 487 560 31,400 -968 Descending Memphis Center
Wed 08:25:21 AM 34.3942 -86.2847 102° East 487 560 30,400 -1,024 Descending Memphis Center
Wed 08:26:22 AM 34.3633 -86.1150 102° East 482 555 29,300 -1,736 Descending Atlanta Center
Wed 08:27:22 AM 34.3219 -85.9603 108° East 482 555 26,900 -2,500 Descending Atlanta Center
Wed 08:28:22 AM 34.2636 -85.8208 117° Southeast 471 542 24,300 -2,550 Descending Atlanta Center
Wed 08:29:22 AM 34.2092 -85.6792 115° Southeast 445 512 21,800 -2,300 Descending Atlanta Center
Wed 08:30:22 AM 34.1583 -85.5650 118° Southeast 409 471 19,700 -2,400 Descending Atlanta Center
Wed 08:31:22 AM 34.1136 -85.4614 118° Southeast 359 413 17,000 -2,550 Descending Atlanta Center
Wed 08:32:22 AM 34.0689 -85.3578 117° Southeast 348 400 14,600 -2,400 Descending Atlanta Center
Wed 08:33:22 AM 34.0242 -85.2569 118° Southeast 343 395 12,200 -1,300 Descending Atlanta Center
Wed 08:34:22 AM 33.9814 -85.1511 116° Southeast 349 402 12,000 -400 Descending Atlanta Center
Wed 08:35:22 AM 33.9425 -85.0631 118° Southeast 344 396 11,400 -1,050 Descending Atlanta Center
Wed 08:36:22 AM 33.8867 -84.9772 128° Southeast 329 379 9,900 -1,200 Descending Atlanta Center
Wed 08:37:22 AM 33.8161 -84.9389 156° South 288 331 9,000 -800 Descending Atlanta Center
Wed 08:38:22 AM 33.7411 -84.9031 158° South 288 331 8,300 -800 Descending Atlanta Center
Wed 08:39:22 AM 33.6661 -84.8775 164° South 288 331 7,400 -950 Descending Atlanta Center
Wed 08:40:22 AM 33.6311 -84.8172 125° Southeast 227 261 6,400 -958 Descending Atlanta Center
Wed 08:41:46 AM 33.6333 -84.7167 88° East 188 216 5,100 -875 Descending Atlanta TRACON
Wed 08:42:46 AM 33.6333 -84.6500 90° East 175 201 4,300 -800 Descending Atlanta TRACON
Wed 08:43:46 AM 33.6333 -84.6000 90° East 172 198 3,500 -850 Descending Atlanta TRACON
Wed 08:44:46 AM 33.6333 -84.5333 90° East 157 181 2,600 -789 Descending Atlanta TRACON
Wed 08:45:40 AM 33.6333 -84.5000 90° East 114 131 2,000 -737 Descending Atlanta TRACON
Wed 08:46:40 AM 33.6333 -84.4500 90° East 144 166 1,200 -800 Descending Atlanta TRACON

Login

Don't have an account? Register now (free) for customized features, flight alerts, and more!